Time;durP1;ratioP1;P1;durP2;ratioP2;P2;SDS_P1;SDS_P2;PMS_P1;PMS_P2;Temp;Humidity;BMP_temperature;BMP_pressure;BME280_temperature;BME280_humidity;BME280_pressure;Samples;Min_cycle;Max_cycle;Signal;HPM_P1;HPM_P2
2021/09/02 00:01:23;;;;;;;9.88;6.43;;;;;;;;;;5107403;27;20086;-66
2021/09/02 00:03:50;;;;;;;15.80;7.47;;;;;;;;;;5105289;28;20063;-66
2021/09/02 00:06:16;;;;;;;10.52;7.10;;;;;;;;;;5102270;27;20051;-66
2021/09/02 00:08:43;;;;;;;12.40;7.20;;;;;;;;;;5102224;27;20131;-66
2021/09/02 00:11:09;;;;;;;16.05;8.40;;;;;;;;;;5097881;28;20095;-66
2021/09/02 00:13:36;;;;;;;16.77;9.27;;;;;;;;;;5099487;28;20057;-66
2021/09/02 00:16:02;;;;;;;21.55;10.68;;;;;;;;;;5105198;28;20055;-66
2021/09/02 00:18:29;;;;;;;19.00;9.73;;;;;;;;;;5106232;27;20601;-66
2021/09/02 00:20:55;;;;;;;21.67;10.27;;;;;;;;;;5096172;28;20102;-66
2021/09/02 00:23:22;;;;;;;22.33;10.85;;;;;;;;;;5100344;28;20357;-66
2021/09/02 00:25:48;;;;;;;19.90;9.18;;;;;;;;;;5101254;28;20134;-66
2021/09/02 00:28:15;;;;;;;12.75;7.80;;;;;;;;;;5098365;28;20603;-66
2021/09/02 00:30:42;;;;;;;12.20;6.65;;;;;;;;;;5105575;27;20043;-66
2021/09/02 00:33:14;;;;;;;13.30;7.45;;;;;;;;;;5099620;28;20044;-66
2021/09/02 00:35:40;;;;;;;12.50;7.05;;;;;;;;;;5103493;28;20298;-66
2021/09/02 00:38:07;;;;;;;19.73;9.27;;;;;;;;;;5095602;28;20095;-66
2021/09/02 00:40:33;;;;;;;23.40;11.20;;;;;;;;;;5099425;28;20086;-66
2021/09/02 00:43:00;;;;;;;14.95;8.02;;;;;;;;;;5098305;28;20130;-66
2021/09/02 00:45:26;;;;;;;22.08;10.15;;;;;;;;;;5097934;28;20091;-66
2021/09/02 00:47:53;;;;;;;22.10;10.38;;;;;;;;;;5103615;28;20079;-66
2021/09/02 00:50:20;;;;;;;26.10;12.07;;;;;;;;;;5097322;28;20083;-66
2021/09/02 00:52:46;;;;;;;32.05;13.85;;;;;;;;;;5100797;27;20127;-66
2021/09/02 00:55:13;;;;;;;36.45;15.48;;;;;;;;;;5100285;28;20187;-66
2021/09/02 00:57:39;;;;;;;25.47;11.70;;;;;;;;;;5099854;28;20076;-66
2021/09/02 01:00:10;;;;;;;25.90;11.40;;;;;;;;;;5103349;28;20947;-66
2021/09/02 01:02:37;;;;;;;17.83;9.23;;;;;;;;;;5104449;28;20086;-66
2021/09/02 01:05:04;;;;;;;18.98;8.90;;;;;;;;;;5104863;27;20148;-66
2021/09/02 01:07:32;;;;;;;;;;;;;;;;;;5101082;28;20408;-65
2021/09/02 01:09:59;;;;;;;16.05;8.55;;;;;;;;;;5105317;28;19967;-65
2021/09/02 01:12:29;;;;;;;22.35;9.95;;;;;;;;;;5101029;28;20127;-65
2021/09/02 01:14:56;;;;;;;29.95;11.38;;;;;;;;;;5095653;28;20091;-65
2021/09/02 01:17:23;;;;;;;23.90;9.73;;;;;;;;;;5101737;27;20103;-65
2021/09/02 01:19:51;;;;;;;23.52;10.27;;;;;;;;;;5100035;28;20082;-65
2021/09/02 01:22:17;;;;;;;;;;;;;;;;;;5099125;28;20044;-66
2021/09/02 01:24:44;;;;;;;24.42;10.85;;;;;;;;;;5102580;28;20033;-65
2021/09/02 01:27:11;;;;;;;21.10;9.77;;;;;;;;;;5101059;28;20115;-65
2021/09/02 01:29:37;;;;;;;22.25;9.93;;;;;;;;;;5102397;28;20123;-65
2021/09/02 01:32:04;;;;;;;18.75;10.20;;;;;;;;;;5099114;28;20071;-66
2021/09/02 01:34:31;;;;;;;;;;;;;;;;;;5101350;28;20047;-65
2021/09/02 01:36:57;;;;;;;18.42;9.23;;;;;;;;;;5095640;28;20011;-66
2021/09/02 01:39:24;;;;;;;16.08;8.85;;;;;;;;;;5095966;28;20198;-65
2021/09/02 01:41:50;;;;;;;16.40;8.88;;;;;;;;;;5101600;27;20071;-65
2021/09/02 01:44:17;;;;;;;16.73;9.45;;;;;;;;;;5099026;28;20083;-65
2021/09/02 01:46:43;;;;;;;17.35;9.23;;;;;;;;;;5102690;28;20543;-65
2021/09/02 01:49:10;;;;;;;22.33;9.27;;;;;;;;;;5098452;28;20075;-65
2021/09/02 01:51:36;;;;;;;22.70;10.07;;;;;;;;;;5102473;28;20082;-65
2021/09/02 01:54:03;;;;;;;20.80;9.73;;;;;;;;;;5102365;28;20138;-65
2021/09/02 01:56:29;;;;;;;18.33;8.70;;;;;;;;;;5099019;28;20083;-66
2021/09/02 01:58:56;;;;;;;17.40;10.77;;;;;;;;;;5099768;28;20082;-65
2021/09/02 02:01:22;;;;;;;20.08;10.55;;;;;;;;;;5104080;28;20178;-65
2021/09/02 02:03:49;;;;;;;22.50;11.10;;;;;;;;;;5103858;28;20056;-66
2021/09/02 02:06:16;;;;;;;19.98;9.93;;;;;;;;;;5100730;28;20054;-65
2021/09/02 02:08:42;;;;;;;25.65;10.85;;;;;;;;;;5096073;28;20086;-65
2021/09/02 02:11:09;;;;;;;23.48;11.52;;;;;;;;;;5096391;28;20474;-65
2021/09/02 02:13:35;;;;;;;36.25;12.98;;;;;;;;;;5096862;28;20483;-65
2021/09/02 02:16:02;;;;;;;28.45;11.70;;;;;;;;;;5103497;27;20054;-65
2021/09/02 02:18:28;;;;;;;22.13;10.20;;;;;;;;;;5096329;28;20127;-65
2021/09/02 02:20:55;;;;;;;20.08;9.75;;;;;;;;;;5095494;28;20055;-65
2021/09/02 02:23:22;;;;;;;18.00;8.75;;;;;;;;;;5094659;28;20048;-65
2021/09/02 02:25:48;;;;;;;20.03;9.80;;;;;;;;;;5100239;28;20055;-65
2021/09/02 02:28:15;;;;;;;26.50;11.77;;;;;;;;;;5096853;28;20079;-66
2021/09/02 02:30:42;;;;;;;20.55;10.57;;;;;;;;;;5097146;28;20083;-65
2021/09/02 02:33:09;;;;;;;23.13;10.10;;;;;;;;;;5097307;28;20043;-65
2021/09/02 02:35:35;;;;;;;24.33;11.60;;;;;;;;;;5097527;28;20130;-65
2021/09/02 02:38:02;;;;;;;22.65;10.80;;;;;;;;;;5105392;28;20139;-65
2021/09/02 02:40:28;;;;;;;23.00;10.88;;;;;;;;;;5101492;28;20134;-65
2021/09/02 02:42:56;;;;;;;26.00;11.35;;;;;;;;;;5094878;28;20654;-65
2021/09/02 02:45:23;;;;;;;30.35;12.75;;;;;;;;;;5098031;28;20135;-65
2021/09/02 02:47:50;;;;;;;33.15;13.43;;;;;;;;;;5094717;28;20946;-66
2021/09/02 02:50:16;;;;;;;22.02;11.05;;;;;;;;;;5102289;27;20415;-65
2021/09/02 02:52:43;;;;;;;16.05;7.22;;;;;;;;;;5099451;28;20139;-65
2021/09/02 02:55:09;;;;;;;18.30;7.53;;;;;;;;;;5103903;28;20044;-65
2021/09/02 02:57:36;;;;;;;21.00;10.93;;;;;;;;;;5102865;28;20127;-65
2021/09/02 03:00:04;;;;;;;20.88;9.23;;;;;;;;;;5094192;28;20047;-65
2021/09/02 03:02:31;;;;;;;14.77;8.10;;;;;;;;;;5099522;28;20086;-65
2021/09/02 03:04:58;;;;;;;16.92;8.75;;;;;;;;;;5094114;28;20062;-65
2021/09/02 03:07:25;;;;;;;8.27;5.03;;;;;;;;;;5100675;28;20050;-65
2021/09/02 03:09:51;;;;;;;9.07;4.72;;;;;;;;;;5099718;28;20059;-65
2021/09/02 03:12:18;;;;;;;15.52;7.18;;;;;;;;;;5088068;28;20092;-65
2021/09/02 03:14:44;;;;;;;16.08;8.80;;;;;;;;;;5097565;28;20101;-65
2021/09/02 03:17:11;;;;;;;15.90;8.05;;;;;;;;;;5100206;28;20478;-65
2021/09/02 03:19:37;;;;;;;15.75;7.68;;;;;;;;;;5098180;28;20476;-65
2021/09/02 03:22:04;;;;;;;17.02;8.70;;;;;;;;;;5101427;28;20530;-66
2021/09/02 03:24:30;;;;;;;19.97;9.83;;;;;;;;;;5097629;28;20122;-65
2021/09/02 03:26:57;;;;;;;20.63;9.88;;;;;;;;;;5099054;28;20127;-65
2021/09/02 03:29:23;;;;;;;23.10;11.30;;;;;;;;;;5101675;27;20119;-64
2021/09/02 03:31:50;;;;;;;29.90;13.68;;;;;;;;;;5099718;28;20410;-64
2021/09/02 03:34:17;;;;;;;27.95;12.30;;;;;;;;;;5101639;28;20135;-64
2021/09/02 03:36:46;;;;;;;18.33;8.02;;;;;;;;;;5099254;28;20131;-64
2021/09/02 03:39:14;;;;;;;13.82;6.93;;;;;;;;;;5098565;28;20631;-65
2021/09/02 03:41:41;;;;;;;13.65;7.30;;;;;;;;;;5098486;28;20563;-65
2021/09/02 03:44:07;;;;;;;13.27;8.13;;;;;;;;;;5097100;28;20461;-65
2021/09/02 03:46:34;;;;;;;15.80;9.23;;;;;;;;;;5099234;28;20054;-65
2021/09/02 03:49:01;;;;;;;21.90;9.23;;;;;;;;;;5093720;28;20140;-66
2021/09/02 03:51:27;;;;;;;24.73;11.32;;;;;;;;;;5103267;28;20115;-66
2021/09/02 03:53:54;;;;;;;25.10;11.17;;;;;;;;;;5096000;28;20541;-65
2021/09/02 03:56:21;;;;;;;20.98;10.98;;;;;;;;;;5097096;28;20123;-65
2021/09/02 03:58:47;;;;;;;18.63;10.13;;;;;;;;;;5099207;28;20044;-66
2021/09/02 04:01:14;;;;;;;17.97;9.37;;;;;;;;;;5098722;28;20159;-65
2021/09/02 04:03:40;;;;;;;20.13;8.77;;;;;;;;;;5095411;28;20105;-65
2021/09/02 04:06:07;;;;;;;19.05;9.18;;;;;;;;;;5095704;28;20486;-65
2021/09/02 04:08:33;;;;;;;20.33;10.45;;;;;;;;;;5097546;28;20119;-65
2021/09/02 04:11:00;;;;;;;28.10;12.60;;;;;;;;;;5103319;28;20082;-65
2021/09/02 04:13:26;;;;;;;29.10;13.63;;;;;;;;;;5080372;28;20135;-65
2021/09/02 04:15:54;;;;;;;24.03;10.30;;;;;;;;;;5102129;28;20507;-65
2021/09/02 04:18:22;;;;;;;25.30;10.70;;;;;;;;;;5093560;28;20369;-65
2021/09/02 04:20:48;;;;;;;22.83;11.10;;;;;;;;;;5098292;28;20079;-65
2021/09/02 04:23:15;;;;;;;21.90;10.17;;;;;;;;;;5090657;28;20098;-65
2021/09/02 04:25:41;;;;;;;18.45;10.52;;;;;;;;;;5100159;28;20043;-65
2021/09/02 04:28:08;;;;;;;19.33;10.02;;;;;;;;;;5101650;28;20482;-65
2021/09/02 04:30:35;;;;;;;26.42;12.75;;;;;;;;;;5099440;28;20075;-64
2021/09/02 04:33:01;;;;;;;23.25;10.93;;;;;;;;;;5100778;28;20158;-65
2021/09/02 04:35:28;;;;;;;23.52;11.75;;;;;;;;;;5094430;28;20071;-65
2021/09/02 04:37:55;;;;;;;22.25;11.18;;;;;;;;;;5098401;28;20134;-65
2021/09/02 04:40:22;;;;;;;28.40;13.38;;;;;;;;;;5092669;28;20138;-65
2021/09/02 04:42:48;;;;;;;29.95;13.65;;;;;;;;;;5095455;28;20138;-65
2021/09/02 04:45:15;;;;;;;24.17;14.00;;;;;;;;;;5106108;27;20648;-65
2021/09/02 04:47:42;;;;;;;25.38;12.10;;;;;;;;;;5101751;27;20832;-65
2021/09/02 04:50:09;;;;;;;21.33;10.30;;;;;;;;;;5101634;27;20044;-65
2021/09/02 04:52:36;;;;;;;;;;;;;;;;;;5097880;28;20142;-65
2021/09/02 04:55:03;;;;;;;20.40;8.77;;;;;;;;;;5096772;28;20355;-65
2021/09/02 04:57:30;;;;;;;15.27;8.55;;;;;;;;;;5097147;27;20074;-65
2021/09/02 04:59:57;;;;;;;20.80;10.10;;;;;;;;;;5104333;27;20086;-65
2021/09/02 05:02:24;;;;;;;17.70;9.98;;;;;;;;;;5098654;28;20511;-65
2021/09/02 05:04:50;;;;;;;22.20;10.68;;;;;;;;;;5101458;27;20044;-65
2021/09/02 05:07:18;;;;;;;22.17;10.18;;;;;;;;;;5097224;28;20142;-65
2021/09/02 05:09:44;;;;;;;16.08;9.63;;;;;;;;;;5098931;28;20123;-65
2021/09/02 05:12:14;;;;;;;15.23;8.90;;;;;;;;;;5093719;28;20308;-65
2021/09/02 05:14:40;;;;;;;20.90;9.93;;;;;;;;;;5101206;28;20429;-65
2021/09/02 05:17:08;;;;;;;20.40;9.77;;;;;;;;;;5103823;27;20052;-65
2021/09/02 05:19:35;;;;;;;22.35;10.63;;;;;;;;;;5096164;27;20592;-65
2021/09/02 05:22:02;;;;;;;22.77;10.82;;;;;;;;;;5096124;28;20466;-65
2021/09/02 05:24:29;;;;;;;28.23;13.43;;;;;;;;;;5103088;27;20128;-65
2021/09/02 05:26:55;;;;;;;20.27;9.85;;;;;;;;;;5101457;27;20052;-65
2021/09/02 05:29:22;;;;;;;23.70;11.57;;;;;;;;;;5096337;28;20138;-65
2021/09/02 05:31:48;;;;;;;22.13;11.43;;;;;;;;;;5098865;28;20070;-65
2021/09/02 05:34:14;;;;;;;19.10;11.65;;;;;;;;;;5103773;28;20131;-65
2021/09/02 05:36:41;;;;;;;23.27;11.73;;;;;;;;;;5099176;28;20474;-65
2021/09/02 05:39:08;;;;;;;23.10;11.52;;;;;;;;;;5105918;27;20160;-65
2021/09/02 05:41:34;;;;;;;21.52;10.70;;;;;;;;;;5101665;28;20130;-65
2021/09/02 05:44:01;;;;;;;22.17;10.95;;;;;;;;;;5095002;28;20144;-65
2021/09/02 05:46:27;;;;;;;17.63;9.57;;;;;;;;;;5100686;28;20146;-65
2021/09/02 05:48:54;;;;;;;20.23;10.38;;;;;;;;;;5102105;27;20051;-65
2021/09/02 05:51:21;;;;;;;20.10;10.02;;;;;;;;;;5102337;28;20055;-65
2021/09/02 05:53:47;;;;;;;20.92;10.32;;;;;;;;;;5098075;27;20143;-65
2021/09/02 05:56:14;;;;;;;18.20;10.20;;;;;;;;;;5097334;28;20083;-65
2021/09/02 05:58:40;;;;;;;19.80;10.95;;;;;;;;;;5105452;27;20070;-65
2021/09/02 06:01:11;;;;;;;19.67;11.45;;;;;;;;;;5093431;28;20096;-65
2021/09/02 06:03:38;;;;;;;21.00;11.20;;;;;;;;;;5099877;28;20407;-65
2021/09/02 06:06:05;;;;;;;20.85;11.90;;;;;;;;;;5097046;28;20385;-65
2021/09/02 06:08:33;;;;;;;22.88;11.05;;;;;;;;;;5095705;28;20091;-65
2021/09/02 06:11:02;;;;;;;19.85;11.38;;;;;;;;;;5098517;28;20059;-65
2021/09/02 06:13:29;;;;;;;21.38;12.40;;;;;;;;;;5099683;28;20131;-65
2021/09/02 06:15:56;;;;;;;24.17;11.93;;;;;;;;;;5096408;27;20089;-65
2021/09/02 06:18:22;;;;;;;24.73;11.57;;;;;;;;;;5107034;27;20102;-65
2021/09/02 06:20:50;;;;;;;18.75;11.32;;;;;;;;;;5098991;28;20131;-65
2021/09/02 06:23:16;;;;;;;;;;;;;;;;;;5101576;28;20123;-65
2021/09/02 06:25:43;;;;;;;18.48;11.20;;;;;;;;;;5098287;28;20026;-65
2021/09/02 06:28:11;;;;;;;23.40;12.38;;;;;;;;;;5096448;28;20044;-65
2021/09/02 06:30:37;;;;;;;24.52;11.60;;;;;;;;;;5100253;28;20146;-65
2021/09/02 06:33:04;;;;;;;16.50;11.40;;;;;;;;;;5097696;28;20051;-65
2021/09/02 06:35:31;;;;;;;27.15;12.18;;;;;;;;;;5103340;28;20083;-65
2021/09/02 06:37:57;;;;;;;20.00;11.98;;;;;;;;;;5096210;28;20131;-65
2021/09/02 06:40:24;;;;;;;23.42;12.75;;;;;;;;;;5100106;28;20171;-65
2021/09/02 06:42:51;;;;;;;25.97;11.63;;;;;;;;;;5098624;28;20518;-65
2021/09/02 06:45:17;;;;;;;18.13;11.45;;;;;;;;;;5098128;28;20321;-65
2021/09/02 06:47:44;;;;;;;16.38;10.63;;;;;;;;;;5099311;27;20075;-65
2021/09/02 06:50:13;;;;;;;18.15;10.82;;;;;;;;;;5100202;27;20104;-65
2021/09/02 06:52:40;;;;;;;16.63;10.23;;;;;;;;;;5099957;28;20510;-65
2021/09/02 06:55:07;;;;;;;18.38;10.02;;;;;;;;;;5101416;28;20570;-65
2021/09/02 06:57:36;;;;;;;17.45;9.32;;;;;;;;;;5098834;28;20143;-65
2021/09/02 07:00:04;;;;;;;12.32;8.35;;;;;;;;;;5096232;28;20580;-65
2021/09/02 07:02:30;;;;;;;14.45;9.05;;;;;;;;;;5097753;27;20166;-65
2021/09/02 07:04:57;;;;;;;18.00;9.25;;;;;;;;;;5097872;28;20043;-65
2021/09/02 07:07:24;;;;;;;11.93;8.32;;;;;;;;;;5096547;28;20055;-65
2021/09/02 07:09:51;;;;;;;12.30;7.85;;;;;;;;;;5095987;27;20130;-65
2021/09/02 07:12:18;;;;;;;12.13;8.25;;;;;;;;;;5098554;27;20494;-65
2021/09/02 07:14:45;;;;;;;10.82;7.13;;;;;;;;;;5100476;28;20047;-65
2021/09/02 07:17:11;;;;;;;10.98;7.63;;;;;;;;;;5101665;28;20075;-65
2021/09/02 07:19:38;;;;;;;9.13;7.15;;;;;;;;;;5097425;27;20078;-65
2021/09/02 07:22:04;;;;;;;9.15;6.72;;;;;;;;;;5091998;28;20056;-65
2021/09/02 07:24:31;;;;;;;10.52;7.28;;;;;;;;;;5097129;28;20135;-65
2021/09/02 07:26:57;;;;;;;11.57;7.78;;;;;;;;;;5098109;28;20080;-64
2021/09/02 07:29:24;;;;;;;10.88;7.05;;;;;;;;;;5099318;28;20050;-65
2021/09/02 07:31:51;;;;;;;9.75;6.75;;;;;;;;;;5098092;28;20067;-65
2021/09/02 07:34:18;;;;;;;10.05;6.20;;;;;;;;;;5097476;28;20584;-65
2021/09/02 07:36:45;;;;;;;10.30;6.65;;;;;;;;;;5095242;28;20134;-65
2021/09/02 07:39:11;;;;;;;9.13;6.35;;;;;;;;;;5099046;28;20131;-65
2021/09/02 07:41:38;;;;;;;8.55;5.40;;;;;;;;;;5094048;28;20131;-65
2021/09/02 07:44:05;;;;;;;8.48;5.82;;;;;;;;;;5093646;28;20095;-65
2021/09/02 07:46:31;;;;;;;7.95;5.53;;;;;;;;;;5100337;28;20147;-64
2021/09/02 07:48:58;;;;;;;6.95;4.82;;;;;;;;;;5097140;28;20051;-65
2021/09/02 07:51:24;;;;;;;6.75;4.90;;;;;;;;;;5097776;28;20098;-65
2021/09/02 07:53:51;;;;;;;7.53;5.03;;;;;;;;;;5097052;28;20134;-65
2021/09/02 07:56:18;;;;;;;6.70;4.95;;;;;;;;;;5097601;28;20048;-65
2021/09/02 07:58:44;;;;;;;6.30;3.88;;;;;;;;;;5099627;28;20083;-65
2021/09/02 08:01:12;;;;;;;8.10;3.60;;;;;;;;;;5094859;28;20143;-64
2021/09/02 08:03:39;;;;;;;4.13;2.72;;;;;;;;;;5097545;28;20479;-65
2021/09/02 08:06:06;;;;;;;3.60;2.67;;;;;;;;;;5090740;28;20496;-64
2021/09/02 08:08:33;;;;;;;4.22;2.20;;;;;;;;;;5098629;28;20492;-64
2021/09/02 08:11:00;;;;;;;;;;;;;;;;;;5103689;28;20056;-64
2021/09/02 08:13:26;;;;;;;3.63;2.22;;;;;;;;;;5093761;28;19971;-65
2021/09/02 08:15:52;;;;;;;3.25;2.33;;;;;;;;;;5098397;27;20082;-64
2021/09/02 08:18:19;;;;;;;3.50;2.22;;;;;;;;;;5097897;28;20044;-64
2021/09/02 08:20:45;;;;;;;3.60;2.25;;;;;;;;;;5098467;27;20055;-64
2021/09/02 08:23:12;;;;;;;3.03;2.47;;;;;;;;;;5097746;28;20052;-64
2021/09/02 08:25:39;;;;;;;3.60;2.50;;;;;;;;;;5104803;27;20039;-64
2021/09/02 08:28:06;;;;;;;3.00;2.47;;;;;;;;;;5094689;28;20107;-64
2021/09/02 08:30:32;;;;;;;3.95;2.67;;;;;;;;;;5098124;27;20051;-64
2021/09/02 08:32:59;;;;;;;3.08;2.25;;;;;;;;;;5101078;27;20040;-65
2021/09/02 08:35:26;;;;;;;3.15;2.60;;;;;;;;;;5101588;28;20139;-64
2021/09/02 08:37:58;;;;;;;3.85;2.78;;;;;;;;;;5102864;27;20460;-64
2021/09/02 08:40:26;;;;;;;3.63;2.50;;;;;;;;;;5104057;27;20093;-64
2021/09/02 08:42:54;;;;;;;4.00;3.05;;;;;;;;;;5100549;28;20083;-64
2021/09/02 08:45:21;;;;;;;3.97;2.50;;;;;;;;;;5100740;27;20086;-65
2021/09/02 08:47:48;;;;;;;;;;;;;;;;;;5101371;28;20135;-64
2021/09/02 08:50:16;;;;;;;3.22;2.60;;;;;;;;;;5102362;27;19966;-65
2021/09/02 08:52:42;;;;;;;3.75;2.53;;;;;;;;;;5107987;28;20040;-64
2021/09/02 08:55:09;;;;;;;5.32;2.42;;;;;;;;;;5100686;28;20142;-64
2021/09/02 08:57:36;;;;;;;3.10;2.10;;;;;;;;;;5099603;28;20154;-64
2021/09/02 09:00:03;;;;;;;3.65;2.70;;;;;;;;;;5104032;27;20075;-64
2021/09/02 09:02:32;;;;;;;3.10;2.10;;;;;;;;;;5100821;28;20097;-64
2021/09/02 09:04:58;;;;;;;3.67;2.15;;;;;;;;;;5101829;28;20054;-64
2021/09/02 09:07:29;;;;;;;2.70;2.35;;;;;;;;;;5098891;28;20083;-65
2021/09/02 09:09:56;;;;;;;2.88;1.92;;;;;;;;;;5101955;27;20144;-64
2021/09/02 09:12:34;;;;;;;2.13;1.92;;;;;;;;;;5104283;27;20090;-64
2021/09/02 09:15:03;;;;;;;3.13;2.10;;;;;;;;;;5102423;27;20477;-64
2021/09/02 09:17:31;;;;;;;4.13;1.90;;;;;;;;;;5096385;28;20072;-64
2021/09/02 09:19:57;;;;;;;2.95;2.20;;;;;;;;;;5102280;27;20135;-64
2021/09/02 09:22:26;;;;;;;2.83;2.05;;;;;;;;;;5100495;27;20139;-64
2021/09/02 09:25:03;;;;;;;3.05;2.47;;;;;;;;;;5104198;28;20127;-64
2021/09/02 09:27:35;;;;;;;7.22;2.47;;;;;;;;;;5103475;28;20083;-65
2021/09/02 09:30:20;;;;;;;3.55;2.75;;;;;;;;;;5099412;28;20075;-64
2021/09/02 09:32:49;;;;;;;4.82;2.05;;;;;;;;;;5104593;27;20162;-64
2021/09/02 09:35:18;;;;;;;4.75;2.22;;;;;;;;;;5106773;28;20494;-65
2021/09/02 09:37:46;;;;;;;3.33;2.78;;;;;;;;;;5098934;28;20530;-65
2021/09/02 09:40:17;;;;;;;3.38;2.67;;;;;;;;;;5099405;27;20105;-65
2021/09/02 09:42:54;;;;;;;2.35;2.10;;;;;;;;;;5101743;28;20056;-64
2021/09/02 09:45:40;;;;;;;3.95;2.40;;;;;;;;;;5098185;28;20054;-64
2021/09/02 09:48:29;;;;;;;3.38;2.55;;;;;;;;;;5099244;28;20083;-64
2021/09/02 09:51:04;;;;;;;2.08;1.67;;;;;;;;;;5086467;27;20094;-64
2021/09/02 09:53:31;;;;;;;6.05;1.83;;;;;;;;;;5099199;28;20101;-64
2021/09/02 09:55:58;;;;;;;2.05;1.67;;;;;;;;;;5103969;27;20078;-64
2021/09/02 09:58:26;;;;;;;3.97;1.75;;;;;;;;;;5105934;27;20078;-64
2021/09/02 10:01:00;;;;;;;2.28;1.92;;;;;;;;;;5107662;27;20833;-64
2021/09/02 10:03:29;;;;;;;2.53;1.67;;;;;;;;;;5105106;28;20459;-64
2021/09/02 10:05:59;;;;;;;1.50;1.40;;;;;;;;;;5097312;28;20512;-64
2021/09/02 10:08:26;;;;;;;2.20;1.40;;;;;;;;;;5096757;27;20079;-64
2021/09/02 10:10:53;;;;;;;1.92;1.60;;;;;;;;;;5102577;28;20082;-65
2021/09/02 10:13:20;;;;;;;2.35;1.60;;;;;;;;;;5100025;28;20135;-64
2021/09/02 10:15:46;;;;;;;1.58;1.48;;;;;;;;;;5099830;28;20079;-64
2021/09/02 10:18:13;;;;;;;2.25;1.30;;;;;;;;;;5100599;28;20051;-64
2021/09/02 10:20:41;;;;;;;1.13;1.02;;;;;;;;;;5097716;27;20452;-64
2021/09/02 10:23:07;;;;;;;1.10;1.00;;;;;;;;;;5100716;27;20048;-64
2021/09/02 10:25:40;;;;;;;1.52;1.42;;;;;;;;;;5102087;27;20552;-64
2021/09/02 10:28:13;;;;;;;3.13;1.35;;;;;;;;;;5093122;28;20086;-64
2021/09/02 10:30:44;;;;;;;1.35;1.20;;;;;;;;;;5101122;27;20187;-64
2021/09/02 10:33:32;;;;;;;1.58;1.27;;;;;;;;;;5095555;28;20392;-64
2021/09/02 10:35:59;;;;;;;4.35;1.40;;;;;;;;;;5096294;28;20379;-64
2021/09/02 10:38:26;;;;;;;;;;;;;;;;;;5100948;28;20080;-64
2021/09/02 10:40:52;;;;;;;2.08;1.30;;;;;;;;;;5100628;27;19959;-64
2021/09/02 10:43:39;;;;;;;5.97;1.65;;;;;;;;;;5093814;28;20083;-64
2021/09/02 10:46:22;;;;;;;1.67;1.30;;;;;;;;;;5100828;28;20526;-64
2021/09/02 10:48:48;;;;;;;3.38;1.63;;;;;;;;;;5101017;28;20126;-64
2021/09/02 10:51:32;;;;;;;2.28;1.50;;;;;;;;;;5101967;27;20138;-64
2021/09/02 10:54:00;;;;;;;1.75;1.40;;;;;;;;;;5098737;28;20051;-64
2021/09/02 10:56:34;;;;;;;3.58;1.30;;;;;;;;;;5097332;28;20131;-64
2021/09/02 10:59:02;;;;;;;1.48;1.33;;;;;;;;;;5096663;27;20091;-64
2021/09/02 11:01:31;;;;;;;2.08;1.25;;;;;;;;;;5101225;27;20659;-64
2021/09/02 11:04:03;;;;;;;1.45;1.30;;;;;;;;;;5100072;28;20048;-64
2021/09/02 11:06:46;;;;;;;1.75;1.50;;;;;;;;;;5093514;28;20052;-64
2021/09/02 11:09:25;;;;;;;1.73;1.10;;;;;;;;;;5098417;28;20082;-64
2021/09/02 11:11:52;;;;;;;2.13;1.58;;;;;;;;;;5103742;28;20052;-64
2021/09/02 11:14:18;;;;;;;2.80;1.27;;;;;;;;;;5100567;28;20098;-65
2021/09/02 11:16:45;;;;;;;1.67;1.42;;;;;;;;;;5095968;27;20075;-64
2021/09/02 11:19:12;;;;;;;1.30;1.20;;;;;;;;;;5101293;28;20083;-64
2021/09/02 11:21:38;;;;;;;1.92;1.10;;;;;;;;;;5105162;27;20131;-64
2021/09/02 11:24:06;;;;;;;2.00;1.25;;;;;;;;;;5096137;28;20138;-64
2021/09/02 11:26:40;;;;;;;5.88;1.38;;;;;;;;;;5098675;28;20072;-64
2021/09/02 11:29:08;;;;;;;3.72;1.10;;;;;;;;;;5097224;28;20139;-64
2021/09/02 11:31:36;;;;;;;1.58;1.30;;;;;;;;;;5097389;28;20081;-64
2021/09/02 11:34:02;;;;;;;4.57;1.30;;;;;;;;;;5092107;28;20135;-64
2021/09/02 11:36:29;;;;;;;2.28;1.52;;;;;;;;;;5106786;27;20083;-64
2021/09/02 11:39:07;;;;;;;1.73;1.40;;;;;;;;;;5095558;27;20055;-64
2021/09/02 11:41:33;;;;;;;2.55;1.35;;;;;;;;;;5099245;28;20479;-64
2021/09/02 11:44:00;;;;;;;1.98;1.70;;;;;;;;;;5100865;28;20564;-65
2021/09/02 11:46:27;;;;;;;2.00;1.60;;;;;;;;;;5094270;28;20131;-65
2021/09/02 11:48:57;;;;;;;3.40;1.90;;;;;;;;;;5096156;28;20166;-64
2021/09/02 11:51:25;;;;;;;5.45;1.92;;;;;;;;;;5097472;28;20051;-65
2021/09/02 11:53:51;;;;;;;;;;;;;;;;;;5103925;28;20082;-65
2021/09/02 11:56:20;;;;;;;2.95;1.95;;;;;;;;;;5100798;28;19982;-65
2021/09/02 11:59:00;;;;;;;2.40;2.03;;;;;;;;;;5105189;27;20087;-64
2021/09/02 12:01:27;;;;;;;4.35;2.00;;;;;;;;;;5100090;28;20139;-64
2021/09/02 12:03:55;;;;;;;2.63;1.98;;;;;;;;;;5087196;28;20047;-64
2021/09/02 12:06:31;;;;;;;4.78;1.83;;;;;;;;;;5105405;28;20122;-64
2021/09/02 12:08:59;;;;;;;2.20;1.70;;;;;;;;;;5102862;28;20471;-65
2021/09/02 12:11:26;;;;;;;3.33;1.65;;;;;;;;;;5102564;27;20506;-65
2021/09/02 12:13:54;;;;;;;3.45;2.00;;;;;;;;;;5106843;27;20127;-64
2021/09/02 12:16:23;;;;;;;2.55;1.98;;;;;;;;;;5109337;28;20077;-64
2021/09/02 12:18:56;;;;;;;4.82;2.20;;;;;;;;;;5103553;27;20407;-65
2021/09/02 12:21:25;;;;;;;2.80;2.10;;;;;;;;;;5102704;27;20473;-65
2021/09/02 12:23:52;;;;;;;3.53;2.50;;;;;;;;;;5102679;28;20047;-64
2021/09/02 12:26:41;;;;;;;3.35;2.25;;;;;;;;;;5104023;28;20044;-64
2021/09/02 12:29:11;;;;;;;4.93;2.47;;;;;;;;;;5103192;27;20082;-65
2021/09/02 12:31:38;;;;;;;6.53;3.00;;;;;;;;;;5102333;28;20083;-64
2021/09/02 12:34:18;;;;;;;3.67;2.67;;;;;;;;;;5104736;27;20055;-65
2021/09/02 12:36:46;;;;;;;4.38;2.88;;;;;;;;;;5107821;28;20140;-64
2021/09/02 12:39:12;;;;;;;6.30;3.30;;;;;;;;;;5105231;27;20677;-65
2021/09/02 12:41:42;;;;;;;5.95;3.10;;;;;;;;;;5101898;28;20653;-64
2021/09/02 12:44:11;;;;;;;6.03;3.55;;;;;;;;;;5101904;28;20147;-65
2021/09/02 12:46:50;;;;;;;5.53;2.65;;;;;;;;;;5101825;27;20127;-65
2021/09/02 12:49:17;;;;;;;6.10;3.45;;;;;;;;;;5109283;27;20456;-65
2021/09/02 12:52:07;;;;;;;5.70;3.30;;;;;;;;;;5100433;27;20044;-65
2021/09/02 12:54:52;;;;;;;5.57;3.15;;;;;;;;;;5094187;27;20468;-65
2021/09/02 12:57:19;;;;;;;6.07;2.85;;;;;;;;;;5104460;28;20079;-65
2021/09/02 12:59:46;;;;;;;5.57;3.05;;;;;;;;;;5105658;27;20139;-64
2021/09/02 13:02:13;;;;;;;4.38;2.95;;;;;;;;;;5105399;27;20500;-65
2021/09/02 13:04:39;;;;;;;5.50;3.03;;;;;;;;;;5101292;27;20043;-64
2021/09/02 13:07:06;;;;;;;5.07;2.83;;;;;;;;;;5078555;28;20124;-65
2021/09/02 13:09:32;;;;;;;8.45;3.80;;;;;;;;;;5103322;27;20506;-64
2021/09/02 13:11:59;;;;;;;7.55;3.50;;;;;;;;;;5098891;27;20100;-65
2021/09/02 13:14:25;;;;;;;11.60;3.83;;;;;;;;;;5097877;28;20158;-65
2021/09/02 13:16:52;;;;;;;5.05;3.40;;;;;;;;;;5105144;27;20047;-64
2021/09/02 13:19:18;;;;;;;7.47;3.90;;;;;;;;;;5100378;28;20499;-64
2021/09/02 13:21:45;;;;;;;6.83;3.67;;;;;;;;;;5097606;28;20522;-65
2021/09/02 13:24:11;;;;;;;4.57;3.53;;;;;;;;;;5096133;28;20876;-65
2021/09/02 13:26:37;;;;;;;7.28;3.60;;;;;;;;;;5099646;28;20490;-65
2021/09/02 13:29:04;;;;;;;4.85;3.45;;;;;;;;;;5099355;27;20052;-65
2021/09/02 13:31:32;;;;;;;4.78;3.50;;;;;;;;;;5095990;27;20083;-65
2021/09/02 13:33:59;;;;;;;7.82;4.40;;;;;;;;;;5101276;28;20470;-65
2021/09/02 13:36:25;;;;;;;7.15;3.72;;;;;;;;;;5095559;28;20139;-65
2021/09/02 13:38:52;;;;;;;6.43;4.10;;;;;;;;;;5102862;27;20491;-65
2021/09/02 13:41:18;;;;;;;7.20;4.25;;;;;;;;;;5103177;27;20495;-65
2021/09/02 13:43:45;;;;;;;6.17;4.07;;;;;;;;;;5099833;28;20623;-65
2021/09/02 13:46:11;;;;;;;9.45;4.30;;;;;;;;;;5100674;27;20083;-65
2021/09/02 13:48:38;;;;;;;7.32;4.20;;;;;;;;;;5100052;28;20059;-65
2021/09/02 13:51:09;;;;;;;7.90;4.88;;;;;;;;;;5085820;27;20391;-64
2021/09/02 13:53:36;;;;;;;6.55;4.10;;;;;;;;;;5096892;28;20130;-65
2021/09/02 13:56:02;;;;;;;8.13;4.65;;;;;;;;;;5099918;28;20086;-65
2021/09/02 13:58:29;;;;;;;7.22;4.43;;;;;;;;;;5098259;28;20071;-65
2021/09/02 14:01:00;;;;;;;7.95;4.65;;;;;;;;;;5101432;27;20136;-65
2021/09/02 14:03:27;;;;;;;9.10;4.82;;;;;;;;;;5079096;28;20051;-65
2021/09/02 14:05:55;;;;;;;11.20;5.57;;;;;;;;;;5093446;28;20052;-65
2021/09/02 14:08:22;;;;;;;9.75;4.60;;;;;;;;;;5092945;27;20503;-65
2021/09/02 14:10:48;;;;;;;7.28;4.80;;;;;;;;;;5099479;27;20237;-65
2021/09/02 14:13:15;;;;;;;9.45;5.25;;;;;;;;;;5097191;27;20054;-65
2021/09/02 14:15:42;;;;;;;11.77;5.32;;;;;;;;;;5099517;28;20425;-65
2021/09/02 14:18:08;;;;;;;8.80;5.55;;;;;;;;;;5099812;28;20442;-65
2021/09/02 14:20:35;;;;;;;10.65;5.70;;;;;;;;;;5097985;27;20496;-65
2021/09/02 14:23:01;;;;;;;13.15;6.38;;;;;;;;;;5097840;28;20131;-65
2021/09/02 14:25:28;;;;;;;11.60;7.50;;;;;;;;;;5094388;28;20142;-65
2021/09/02 14:27:55;;;;;;;10.57;6.75;;;;;;;;;;5098688;27;20407;-65
2021/09/02 14:30:21;;;;;;;12.02;6.82;;;;;;;;;;5100103;27;20125;-65
2021/09/02 14:32:47;;;;;;;13.43;6.88;;;;;;;;;;5096722;27;20229;-64
2021/09/02 14:35:14;;;;;;;12.55;6.97;;;;;;;;;;5092663;28;20044;-65
2021/09/02 14:37:40;;;;;;;13.77;7.43;;;;;;;;;;5100188;27;20133;-64
2021/09/02 14:40:07;;;;;;;11.32;7.68;;;;;;;;;;5100032;27;20135;-64